createdAt,value
2023-10-18T00:03:10.177Z,4.37
2023-10-18T00:07:18.570Z,4.32
2023-10-18T00:11:28.173Z,4.32
2023-10-18T00:15:35.951Z,4.32
2023-10-18T00:19:45.408Z,4.34
2023-10-18T00:23:53.861Z,4.30
2023-10-18T00:28:02.157Z,4.21
2023-10-18T00:32:12.441Z,4.15
2023-10-18T00:36:20.067Z,4.14
2023-10-18T00:40:38.945Z,4.06
2023-10-18T00:44:56.552Z,4.00
2023-10-18T00:49:04.270Z,3.95
2023-10-18T00:53:13.061Z,3.96
2023-10-18T00:57:32.459Z,3.98
2023-10-18T01:01:59.602Z,3.93
2023-10-18T01:06:13.634Z,3.88
2023-10-18T01:10:25.295Z,3.83
2023-10-18T01:14:33.696Z,3.75
2023-10-18T01:18:44.792Z,3.70
2023-10-18T01:22:52.969Z,3.66
2023-10-18T01:27:01.220Z,3.68
2023-10-18T01:31:10.511Z,3.70
2023-10-18T01:35:19.046Z,3.69
2023-10-18T01:39:31.199Z,3.71
2023-10-18T01:43:39.846Z,3.65
2023-10-18T01:47:54.038Z,3.53
2023-10-18T01:52:05.922Z,3.40
2023-10-18T01:56:15.518Z,3.31
2023-10-18T02:00:26.780Z,3.27
2023-10-18T02:04:52.204Z,3.25
2023-10-18T02:09:02.159Z,3.24
2023-10-18T02:13:12.575Z,3.22
2023-10-18T02:17:20.927Z,3.21
2023-10-18T02:21:29.122Z,3.16
2023-10-18T02:25:44.655Z,3.07
2023-10-18T02:29:53.522Z,2.99
2023-10-18T02:34:04.523Z,2.95
2023-10-18T02:38:16.475Z,2.96
2023-10-18T02:42:26.078Z,2.98
2023-10-18T02:46:34.658Z,2.95
2023-10-18T02:50:43.406Z,2.89
2023-10-18T02:54:51.503Z,2.81
2023-10-18T02:59:08.573Z,2.72
2023-10-18T03:03:16.403Z,2.64
2023-10-18T03:07:24.630Z,2.57
2023-10-18T03:11:35.239Z,2.58
2023-10-18T03:16:01.498Z,2.61
2023-10-18T03:20:21.376Z,2.67
2023-10-18T03:24:30.337Z,2.70
2023-10-18T03:28:42.425Z,2.71
2023-10-18T03:32:51.990Z,2.69
2023-10-18T03:37:00.882Z,2.63
2023-10-18T03:41:12.446Z,2.57
2023-10-18T03:45:22.949Z,2.57
2023-10-18T03:49:35.048Z,2.58
2023-10-18T03:53:43.153Z,2.57
2023-10-18T03:57:55.928Z,2.58
2023-10-18T04:02:08.721Z,2.50
2023-10-18T04:06:24.716Z,2.43
2023-10-18T04:10:37.189Z,2.32
2023-10-18T04:14:53.926Z,2.20
2023-10-18T04:19:03.786Z,2.17
2023-10-18T04:23:15.986Z,2.20
2023-10-18T04:27:23.632Z,2.22
2023-10-18T04:31:31.742Z,2.25
2023-10-18T04:35:46.162Z,2.22
2023-10-18T04:39:54.948Z,2.18
2023-10-18T04:44:07.041Z,2.16
2023-10-18T04:48:18.117Z,2.11
2023-10-18T04:52:41.486Z,2.08
2023-10-18T04:56:57.847Z,2.06
2023-10-18T05:01:09.131Z,2.04
2023-10-18T05:05:19.127Z,2.02
2023-10-18T05:09:36.213Z,2.02
2023-10-18T05:13:50.134Z,1.99
2023-10-18T05:18:06.777Z,1.90
2023-10-18T05:22:21.400Z,1.86
2023-10-18T05:26:34.610Z,1.84
2023-10-18T05:31:00.875Z,1.90
2023-10-18T05:35:23.316Z,2.01
2023-10-18T05:39:37.882Z,2.06
2023-10-18T05:43:47.589Z,2.08
2023-10-18T05:47:56.539Z,2.06
2023-10-18T05:56:54.500Z,2.07
2023-10-18T06:01:05.937Z,2.07
2023-10-18T06:05:14.735Z,2.16
2023-10-18T06:09:29.252Z,2.24
2023-10-18T06:13:39.062Z,2.31
2023-10-18T06:17:54.691Z,2.35
2023-10-18T06:22:14.793Z,2.37
2023-10-18T06:26:31.964Z,2.40
2023-10-18T06:30:42.888Z,2.50
2023-10-18T06:34:57.240Z,2.62
2023-10-18T06:39:06.008Z,2.74
2023-10-18T06:43:15.764Z,2.82
2023-10-18T06:47:31.818Z,2.91
2023-10-18T06:51:42.772Z,2.97
2023-10-18T06:56:02.036Z,3.02
2023-10-18T07:00:15.981Z,3.14
2023-10-18T07:04:29.291Z,3.28
2023-10-18T07:08:41.616Z,3.41
2023-10-18T07:12:53.793Z,3.52
2023-10-18T07:17:05.806Z,3.64
2023-10-18T07:21:20.403Z,3.77
2023-10-18T07:25:33.737Z,3.95
2023-10-18T07:29:48.040Z,4.16
2023-10-18T07:33:56.185Z,4.34
2023-10-18T07:38:03.797Z,4.47
2023-10-18T07:42:15.178Z,4.59
2023-10-18T07:46:25.994Z,4.72
2023-10-18T07:50:43.222Z,4.92
2023-10-18T07:54:51.908Z,5.16
2023-10-18T07:59:29.368Z,5.37
2023-10-18T08:03:39.918Z,5.57
2023-10-18T08:07:50.634Z,5.71
2023-10-18T08:11:58.302Z,5.85
2023-10-18T08:16:11.533Z,6.03
2023-10-18T08:20:40.590Z,6.25
2023-10-18T08:24:51.985Z,6.42
2023-10-18T08:29:01.108Z,6.55
2023-10-18T08:33:09.206Z,6.66
2023-10-18T08:37:17.502Z,6.84
2023-10-18T08:41:27.870Z,7.03
2023-10-18T08:45:38.214Z,7.19
2023-10-18T08:49:51.762Z,7.31
2023-10-18T08:54:02.600Z,7.41
2023-10-18T08:58:10.936Z,7.49
2023-10-18T09:02:24.076Z,7.59
2023-10-18T09:06:33.385Z,7.76
2023-10-18T09:10:48.825Z,7.92
2023-10-18T09:14:56.925Z,8.08
2023-10-18T09:19:04.744Z,8.21
2023-10-18T09:23:21.684Z,8.33
2023-10-18T09:27:31.000Z,8.46
2023-10-18T09:31:38.872Z,8.58
2023-10-18T09:35:49.308Z,8.68
2023-10-18T09:39:57.900Z,8.82
2023-10-18T09:44:05.372Z,9.00
2023-10-18T09:48:13.318Z,9.23
2023-10-18T09:52:20.957Z,9.41
2023-10-18T09:56:34.930Z,9.52
2023-10-18T10:00:44.169Z,9.62
2023-10-18T10:04:56.848Z,9.72
2023-10-18T10:09:13.382Z,9.80
2023-10-18T10:13:26.772Z,9.90
2023-10-18T10:17:37.760Z,10.03
2023-10-18T10:21:48.464Z,10.15
2023-10-18T10:26:33.037Z,10.24
2023-10-18T10:30:46.007Z,10.30
2023-10-18T10:34:59.480Z,10.34
2023-10-18T10:39:14.213Z,10.38
2023-10-18T10:43:22.045Z,10.45
2023-10-18T10:47:34.026Z,10.52
2023-10-18T10:51:51.128Z,10.64
2023-10-18T10:55:58.841Z,10.78
2023-10-18T11:00:23.921Z,10.94
2023-10-18T11:05:05.353Z,11.06
2023-10-18T11:09:16.997Z,11.17
2023-10-18T11:13:26.538Z,11.29
2023-10-18T11:17:37.066Z,11.38
2023-10-18T11:21:46.079Z,11.49
2023-10-18T11:25:58.401Z,11.59
2023-10-18T11:30:17.101Z,11.70
2023-10-18T11:34:27.869Z,11.82
2023-10-18T11:38:35.772Z,11.92
2023-10-18T11:42:57.046Z,12.01
2023-10-18T11:47:20.305Z,12.06
2023-10-18T11:51:28.380Z,12.15
2023-10-18T11:55:38.549Z,12.21
2023-10-18T11:59:57.418Z,12.25
2023-10-18T12:04:09.579Z,12.30
2023-10-18T12:08:19.375Z,12.39
2023-10-18T12:12:26.870Z,12.51
2023-10-18T12:16:35.453Z,12.56
2023-10-18T12:20:45.880Z,12.59
2023-10-18T12:24:53.796Z,12.61
2023-10-18T12:29:04.858Z,12.67
2023-10-18T12:33:20.724Z,12.71
2023-10-18T12:37:34.692Z,12.76
2023-10-18T12:41:43.003Z,12.85
2023-10-18T12:45:53.293Z,12.94
2023-10-18T12:50:01.345Z,12.95
2023-10-18T12:54:10.731Z,12.94
2023-10-18T12:58:21.605Z,12.95
2023-10-18T13:02:43.744Z,13.01
2023-10-18T13:06:52.343Z,13.10
2023-10-18T13:11:22.259Z,13.18
2023-10-18T13:15:30.048Z,13.29
2023-10-18T13:19:43.156Z,13.34
2023-10-18T13:23:52.503Z,13.38
2023-10-18T13:28:06.883Z,13.40
2023-10-18T13:32:15.525Z,13.41
2023-10-18T13:36:24.292Z,13.42
2023-10-18T13:40:33.158Z,13.44
2023-10-18T13:44:42.661Z,13.42
2023-10-18T13:48:52.509Z,13.42
2023-10-18T13:53:00.756Z,13.44
2023-10-18T13:57:08.896Z,13.50
2023-10-18T14:01:23.861Z,13.63
2023-10-18T14:05:33.418Z,13.79
2023-10-18T14:09:44.944Z,13.91
2023-10-18T14:13:56.592Z,14.00
2023-10-18T14:18:04.593Z,14.05
2023-10-18T14:22:13.987Z,14.07
2023-10-18T14:26:26.096Z,14.07
2023-10-18T14:30:37.444Z,14.02
2023-10-18T14:34:45.160Z,13.98
2023-10-18T14:38:52.856Z,13.89
2023-10-18T14:43:00.905Z,13.78
2023-10-18T14:47:09.507Z,13.68
2023-10-18T14:51:17.224Z,13.54
2023-10-18T14:55:25.608Z,13.41
2023-10-18T14:59:34.986Z,13.25
2023-10-18T15:03:43.217Z,13.11
2023-10-18T15:07:51.011Z,12.93
2023-10-18T15:11:59.366Z,12.70
2023-10-18T15:16:11.513Z,12.53
2023-10-18T15:20:19.671Z,12.39
2023-10-18T15:24:28.141Z,12.27
2023-10-18T15:28:36.703Z,12.18
2023-10-18T15:32:46.591Z,12.08
2023-10-18T15:36:55.666Z,11.98
2023-10-18T15:41:11.438Z,11.86
2023-10-18T15:45:21.359Z,11.71
2023-10-18T15:49:30.503Z,11.59
2023-10-18T15:53:53.153Z,11.48
2023-10-18T15:58:06.062Z,11.37
2023-10-18T16:02:14.225Z,11.27
2023-10-18T16:06:23.118Z,11.17
2023-10-18T16:10:33.741Z,11.06
2023-10-18T16:14:43.184Z,10.94
2023-10-18T16:18:53.574Z,10.83
2023-10-18T16:23:04.652Z,10.72
2023-10-18T16:27:12.468Z,10.59
2023-10-18T16:31:23.116Z,10.47
2023-10-18T16:35:32.609Z,10.34
2023-10-18T16:39:41.088Z,10.20
2023-10-18T16:43:51.723Z,10.09
2023-10-18T16:48:02.175Z,10.03
2023-10-18T16:52:10.540Z,10.03
2023-10-18T16:56:18.688Z,9.98
2023-10-18T17:00:26.415Z,9.90
2023-10-18T17:04:34.153Z,9.81
2023-10-18T17:08:42.133Z,9.67
2023-10-18T17:12:51.393Z,9.55
2023-10-18T17:17:00.294Z,9.39
2023-10-18T17:25:21.832Z,9.17
2023-10-18T17:29:31.018Z,9.06
2023-10-18T17:33:39.013Z,8.93
2023-10-18T17:37:49.237Z,8.80
2023-10-18T17:41:57.761Z,8.72
2023-10-18T17:46:06.295Z,8.63
2023-10-18T17:50:18.953Z,8.61
2023-10-18T17:54:27.026Z,8.59
2023-10-18T17:58:39.096Z,8.60
2023-10-18T18:02:46.576Z,8.60
2023-10-18T18:06:55.953Z,8.58
2023-10-18T18:11:03.602Z,8.52
2023-10-18T18:15:14.440Z,8.43
2023-10-18T18:19:23.506Z,8.36
2023-10-18T18:23:31.527Z,8.29
2023-10-18T18:27:39.474Z,8.21
2023-10-18T18:31:48.675Z,8.13
2023-10-18T18:35:56.981Z,8.05
2023-10-18T18:40:08.896Z,8.00
2023-10-18T18:44:16.895Z,8.02
2023-10-18T18:48:25.322Z,8.02
2023-10-18T18:52:33.439Z,8.00
2023-10-18T18:56:41.910Z,7.95
2023-10-18T19:00:51.369Z,7.88
2023-10-18T19:04:59.049Z,7.78
2023-10-18T19:09:08.992Z,7.69
2023-10-18T19:13:17.261Z,7.57
2023-10-18T19:17:25.019Z,7.43
2023-10-18T19:21:32.896Z,7.30
2023-10-18T19:25:43.082Z,7.21
2023-10-18T19:29:51.055Z,7.13
2023-10-18T19:33:58.533Z,7.06
2023-10-18T19:38:06.548Z,6.99
2023-10-18T19:42:15.074Z,6.95
2023-10-18T19:46:23.527Z,6.88
2023-10-18T19:50:31.976Z,6.82
2023-10-18T19:54:39.638Z,6.71
2023-10-18T19:58:47.825Z,6.59
2023-10-18T20:02:55.640Z,6.55
2023-10-18T20:07:03.656Z,6.53
2023-10-18T20:11:12.489Z,6.55
2023-10-18T20:15:21.455Z,6.51
2023-10-18T20:19:29.762Z,6.48
2023-10-18T20:23:38.133Z,6.41
2023-10-18T20:27:46.008Z,6.26
2023-10-18T20:31:54.157Z,6.12
2023-10-18T20:36:02.246Z,6.10
2023-10-18T20:40:12.633Z,6.11
2023-10-18T20:44:22.117Z,6.08
2023-10-18T20:48:30.572Z,6.04
2023-10-18T20:52:42.558Z,6.00
2023-10-18T20:57:10.928Z,5.95
2023-10-18T21:01:23.854Z,5.91
2023-10-18T21:05:37.026Z,5.91
2023-10-18T21:09:46.210Z,5.94
2023-10-18T21:13:54.570Z,5.95
2023-10-18T21:18:02.680Z,5.92
2023-10-18T21:22:12.988Z,5.85
2023-10-18T21:26:21.161Z,5.80
2023-10-18T21:30:28.774Z,5.75
2023-10-18T21:34:37.136Z,5.77
2023-10-18T21:38:45.932Z,5.79
2023-10-18T21:42:53.901Z,5.75
2023-10-18T21:47:02.079Z,5.73
2023-10-18T21:51:13.550Z,5.72
2023-10-18T21:55:21.877Z,5.69
2023-10-18T21:59:32.195Z,5.59
2023-10-18T22:03:45.160Z,5.55
2023-10-18T22:07:54.216Z,5.55
2023-10-18T22:12:04.831Z,5.56
2023-10-18T22:16:24.972Z,5.50
2023-10-18T22:20:39.345Z,5.42
2023-10-18T22:24:49.533Z,5.35
2023-10-18T22:28:58.923Z,5.35
2023-10-18T22:33:09.407Z,5.41
2023-10-18T22:37:17.581Z,5.40
2023-10-18T22:41:33.636Z,5.35
2023-10-18T22:45:53.136Z,5.26
2023-10-18T22:50:08.126Z,5.15
2023-10-18T22:54:16.319Z,5.05
2023-10-18T22:58:27.452Z,5.01
2023-10-18T23:02:40.457Z,4.98
2023-10-18T23:06:50.542Z,4.98
2023-10-18T23:11:03.171Z,4.97
2023-10-18T23:15:21.370Z,4.95
2023-10-18T23:19:41.076Z,4.90
2023-10-18T23:24:07.256Z,4.96
2023-10-18T23:28:20.422Z,5.01
2023-10-18T23:32:53.456Z,5.04
2023-10-18T23:37:13.919Z,5.07
2023-10-18T23:41:31.040Z,5.04
2023-10-18T23:45:42.238Z,4.98
2023-10-18T23:50:00.632Z,4.92
2023-10-18T23:54:09.242Z,4.95
2023-10-18T23:58:17.080Z,5.00
